Time;durP1;ratioP1;P1;durP2;ratioP2;P2;SDS_P1;SDS_P2;PMS_P1;PMS_P2;Temp;Humidity;BMP_temperature;BMP_pressure;BME280_temperature;BME280_humidity;BME280_pressure;Samples;Min_cycle;Max_cycle;Signal;HPM_P1;HPM_P2
2021/11/23 00:00:13;;;;;;;4.78;1.90;;;;;;;26.00;31.95;97434.97;5023649;28;20056;-31
2021/11/23 00:02:39;;;;;;;4.72;1.90;;;;;;;26.00;31.96;97432.34;5022621;28;20579;-32
2021/11/23 00:05:05;;;;;;;7.50;2.20;;;;;;;26.00;31.92;97434.97;5027778;28;20021;-29
2021/11/23 00:07:30;;;;;;;5.53;1.88;;;;;;;26.00;31.95;97445.47;5029228;28;20036;-30
2021/11/23 00:09:56;;;;;;;4.97;1.83;;;;;;;26.00;31.94;97439.38;5027517;28;20628;-32
2021/11/23 00:12:22;;;;;;;3.13;1.67;;;;;;;26.01;31.88;97446.34;5025112;28;20028;-31
2021/11/23 00:14:48;;;;;;;5.68;1.77;;;;;;;25.99;31.85;97443.78;5021127;28;20025;-32
2021/11/23 00:17:13;;;;;;;6.32;1.95;;;;;;;26.00;31.90;97461.22;5027556;28;20032;-31
2021/11/23 00:19:39;;;;;;;4.43;1.90;;;;;;;25.99;31.95;97449.03;5026253;28;20025;-30
2021/11/23 00:22:04;;;;;;;3.47;1.70;;;;;;;25.97;31.95;97445.59;5027125;28;20985;-33
2021/11/23 00:24:30;;;;;;;5.60;1.85;;;;;;;25.97;31.92;97456.09;5027791;28;20029;-33
2021/11/23 00:26:55;;;;;;;4.07;1.85;;;;;;;25.96;31.85;97450.03;5039484;28;20032;-32
2021/11/23 00:29:20;;;;;;;6.45;1.60;;;;;;;25.97;31.86;97456.09;5027671;28;20032;-32
2021/11/23 00:31:46;;;;;;;3.13;1.77;;;;;;;25.95;31.81;97458.81;5025796;28;20029;-30
2021/11/23 00:34:11;;;;;;;3.40;1.50;;;;;;;25.97;31.86;97456.09;5028196;28;20048;-31
2021/11/23 00:36:37;;;;;;;3.20;1.60;;;;;;;25.95;31.83;97452.72;5024986;28;20035;-30
2021/11/23 00:39:02;;;;;;;3.88;1.90;;;;;;;25.96;31.91;97451.78;5023337;28;20032;-32
2021/11/23 00:41:28;;;;;;;3.92;1.58;;;;;;;25.93;31.70;97450.13;5023784;28;20043;-34
2021/11/23 00:43:53;;;;;;;4.65;1.52;;;;;;;25.94;31.82;97456.25;5026749;28;20032;-34
2021/11/23 00:46:18;;;;;;;2.55;1.40;;;;;;;25.94;31.90;97456.25;5044198;28;20022;-31
2021/11/23 00:48:44;;;;;;;2.95;1.30;;;;;;;25.94;31.75;97453.63;5024564;28;20028;-31
2021/11/23 00:51:09;;;;;;;4.07;1.75;;;;;;;25.94;31.86;97456.25;5026487;28;20024;-32
2021/11/23 00:53:35;;;;;;;4.68;1.60;;;;;;;25.92;31.77;97451.06;5023991;28;20031;-33
2021/11/23 00:56:01;;;;;;;3.22;1.30;;;;;;;25.93;31.83;97465.06;5021873;28;20046;-30
2021/11/23 00:58:27;;;;;;;4.00;1.42;;;;;;;25.93;31.65;97465.06;5027526;28;20396;-31
2021/11/23 01:00:52;;;;;;;3.83;1.52;;;;;;;25.92;31.76;97460.72;5026822;28;20034;-36
2021/11/23 01:03:18;;;;;;;3.72;1.30;;;;;;;25.92;31.84;97473.84;5025552;28;20029;-31
2021/11/23 01:05:47;;;;;;;3.40;1.20;;;;;;;25.91;31.92;97461.63;5026362;28;20443;-33
2021/11/23 01:08:13;;;;;;;2.83;1.33;;;;;;;25.91;31.70;97466.88;5041434;28;20057;-35
2021/11/23 01:10:39;;;;;;;3.75;1.48;;;;;;;25.91;31.85;97461.63;5020808;28;20567;-31
2021/11/23 01:13:04;;;;;;;3.25;1.50;;;;;;;25.90;31.72;97452.06;5023680;28;20341;-28
2021/11/23 01:15:30;;;;;;;5.07;1.75;;;;;;;25.90;31.64;97457.31;5022582;28;20033;-29
2021/11/23 01:17:55;;;;;;;3.42;1.50;;;;;;;25.90;31.72;97467.81;5021434;28;20400;-32
2021/11/23 01:20:22;;;;;;;2.75;1.30;;;;;;;25.89;31.75;97466.94;5034763;28;20048;-35
2021/11/23 01:22:48;;;;;;;2.45;1.45;;;;;;;25.90;31.70;97459.94;5019209;28;20021;-31
2021/11/23 01:25:13;;;;;;;2.42;1.45;;;;;;;25.88;31.72;97460.00;5021222;28;20367;-30
2021/11/23 01:27:39;;;;;;;2.13;1.30;;;;;;;25.88;31.68;97461.75;5022314;28;20032;-34
2021/11/23 01:30:05;;;;;;;4.47;1.55;;;;;;;25.88;31.80;97461.75;5022169;28;20025;-33
2021/11/23 01:32:30;;;;;;;2.25;1.10;;;;;;;25.88;31.84;97467.00;5039486;28;20022;-34
2021/11/23 01:34:56;;;;;;;2.85;1.20;;;;;;;25.86;31.74;97477.59;5027452;28;20712;-32
2021/11/23 01:37:21;;;;;;;6.45;1.45;;;;;;;25.86;31.87;97474.09;5023720;28;20457;-36
2021/11/23 01:39:47;;;;;;;1.60;1.02;;;;;;;25.87;31.79;97481.06;5039860;28;20028;-32
2021/11/23 01:42:12;;;;;;;1.80;1.05;;;;;;;25.87;31.82;97475.81;5027061;28;20429;-30
2021/11/23 01:44:38;;;;;;;2.50;1.08;;;;;;;25.86;31.71;97479.38;5028622;28;20033;-29
2021/11/23 01:47:03;;;;;;;3.28;1.30;;;;;;;25.85;31.65;97481.13;5022122;28;20017;-32
2021/11/23 01:49:28;;;;;;;2.17;1.00;;;;;;;25.85;31.60;97477.66;5027019;28;20028;-34
2021/11/23 01:51:54;;;;;;;2.75;1.42;;;;;;;25.85;31.62;97482.91;5024622;28;20028;-33
2021/11/23 01:54:19;;;;;;;3.22;1.20;;;;;;;25.86;31.77;97489.88;5020518;28;20025;-32
2021/11/23 01:56:45;;;;;;;2.17;1.10;;;;;;;25.85;31.64;97488.16;5013189;28;20103;-30
2021/11/23 01:59:10;;;;;;;3.92;1.38;;;;;;;25.83;31.61;97489.06;5022623;28;20025;-30
2021/11/23 02:01:36;;;;;;;1.50;0.95;;;;;;;25.82;31.54;97489.97;5023008;28;20037;-34
2021/11/23 02:04:03;;;;;;;1.55;1.00;;;;;;;25.82;31.63;97487.34;5040785;28;20033;-31
2021/11/23 02:06:29;;;;;;;3.67;1.02;;;;;;;25.82;31.44;97489.97;5020595;28;20025;-30
2021/11/23 02:08:54;;;;;;;1.15;0.90;;;;;;;25.81;31.53;97488.28;5020764;28;20509;-32
2021/11/23 02:11:21;;;;;;;3.83;1.20;;;;;;;25.82;31.52;97486.53;5039882;28;20036;-31
2021/11/23 02:13:46;;;;;;;1.45;0.82;;;;;;;25.81;31.46;97482.16;5022105;28;20045;-34
2021/11/23 02:16:12;;;;;;;2.08;1.17;;;;;;;25.80;31.31;97481.34;5023962;28;20055;-31
2021/11/23 02:18:38;;;;;;;1.83;1.00;;;;;;;25.80;31.24;97485.72;5021840;28;20024;-30
2021/11/23 02:21:03;;;;;;;1.55;1.05;;;;;;;25.80;31.34;97486.59;5027886;28;20033;-34
2021/11/23 02:23:28;;;;;;;3.20;0.95;;;;;;;25.79;31.30;97484.88;5025989;28;20029;-32
2021/11/23 02:25:54;;;;;;;2.67;1.02;;;;;;;25.78;31.26;97477.91;5020914;28;22083;-33
2021/11/23 02:28:19;;;;;;;1.55;0.95;;;;;;;25.79;31.23;97481.41;5023599;28;20032;-33
2021/11/23 02:30:49;;;;;;;2.20;1.00;;;;;;;25.78;31.21;97483.16;5029388;28;20543;-36
2021/11/23 02:33:17;;;;;;;1.75;0.93;;;;;;;25.77;31.15;97476.22;5038738;28;20026;-35
2021/11/23 02:35:42;;;;;;;3.42;1.00;;;;;;;25.77;31.30;97481.47;5027924;28;20021;-34
2021/11/23 02:38:08;;;;;;;1.75;1.00;;;;;;;25.77;31.31;97480.59;5031098;28;20082;-35
2021/11/23 02:40:33;;;;;;;1.88;1.20;;;;;;;25.77;31.23;97477.97;5031839;28;20086;-33
2021/11/23 02:42:59;;;;;;;1.00;0.60;;;;;;;25.77;31.30;97475.34;5029887;28;20185;-32
2021/11/23 02:45:26;;;;;;;2.05;1.05;;;;;;;25.76;31.20;97481.50;5030270;28;20760;-34
2021/11/23 02:47:51;;;;;;;2.20;0.95;;;;;;;25.75;31.28;97480.69;5025177;28;20025;-29
2021/11/23 02:50:17;;;;;;;1.70;1.00;;;;;;;25.76;31.15;97485.00;5030906;28;20032;-32
2021/11/23 02:52:43;;;;;;;1.35;0.93;;;;;;;25.76;31.12;97484.13;5028000;28;20021;-30
2021/11/23 02:55:09;;;;;;;1.58;1.08;;;;;;;25.75;31.03;97482.44;5027121;28;20543;-33
2021/11/23 02:57:35;;;;;;;3.03;1.13;;;;;;;25.75;31.22;97493.81;5025584;28;20029;-28
2021/11/23 03:00:07;;;;;;;2.08;1.00;;;;;;;25.74;31.22;97486.81;5025723;28;20112;-30
2021/11/23 03:02:32;;;;;;;1.85;1.02;;;;;;;25.74;31.16;97486.00;5028428;28;20021;-31
2021/11/23 03:04:58;;;;;;;1.50;0.70;;;;;;;25.73;31.16;97479.88;5028815;28;20619;-32
2021/11/23 03:07:24;;;;;;;4.57;0.93;;;;;;;25.74;31.00;97483.38;5030920;28;20401;-30
2021/11/23 03:09:50;;;;;;;1.90;0.82;;;;;;;25.72;31.11;97483.44;5022835;28;20131;-31
2021/11/23 03:12:20;;;;;;;1.67;0.98;;;;;;;25.73;31.12;97481.66;5020458;28;20147;-36
2021/11/23 03:14:46;;;;;;;1.42;0.90;;;;;;;25.72;31.17;97483.44;5022312;28;20350;-31
2021/11/23 03:17:12;;;;;;;3.30;0.80;;;;;;;25.72;31.27;97485.19;5022800;28;20029;-32
2021/11/23 03:19:37;;;;;;;1.75;0.70;;;;;;;25.72;31.13;97483.44;5032470;28;20035;-31
2021/11/23 03:22:03;;;;;;;2.33;1.00;;;;;;;25.72;31.23;97482.56;5026824;28;20033;-30
2021/11/23 03:24:29;;;;;;;1.00;0.60;;;;;;;25.73;31.24;97484.28;5028823;28;20397;-30
2021/11/23 03:26:55;;;;;;;1.88;0.82;;;;;;;25.70;31.09;97488.72;5022591;28;20904;-35
2021/11/23 03:29:20;;;;;;;2.28;1.00;;;;;;;25.71;31.17;97476.47;5023624;28;20044;-32
2021/11/23 03:31:46;;;;;;;1.10;0.98;;;;;;;25.70;31.12;97483.47;5027367;28;20260;-31
2021/11/23 03:34:11;;;;;;;2.28;0.93;;;;;;;25.70;31.29;97482.63;5027529;28;20488;-32
2021/11/23 03:36:40;;;;;;;1.67;0.80;;;;;;;25.70;31.19;97480.00;5030290;28;20052;-33
2021/11/23 03:39:06;;;;;;;2.22;0.70;;;;;;;25.70;31.26;97485.25;5028817;28;20033;-31
2021/11/23 03:41:32;;;;;;;1.80;0.80;;;;;;;25.69;31.05;97488.78;5025021;28;20551;-32
2021/11/23 03:43:57;;;;;;;1.92;0.88;;;;;;;25.69;31.23;97488.78;5030188;28;20032;-30
2021/11/23 03:46:23;;;;;;;1.30;0.60;;;;;;;25.69;31.27;97491.41;5026764;28;21058;-32
2021/11/23 03:48:48;;;;;;;1.35;0.70;;;;;;;25.68;31.10;97487.09;5027618;28;20029;-32
2021/11/23 03:51:13;;;;;;;1.20;0.68;;;;;;;25.68;31.06;97492.34;5026543;28;20740;-32
2021/11/23 03:53:39;;;;;;;1.27;0.82;;;;;;;25.68;31.18;97492.34;5030327;28;20025;-32
2021/11/23 03:56:04;;;;;;;2.00;0.77;;;;;;;25.66;31.24;97487.16;5022744;28;20025;-31
2021/11/23 03:58:30;;;;;;;0.82;0.73;;;;;;;25.67;31.12;97491.47;5028999;28;20612;-29
2021/11/23 04:00:55;;;;;;;1.10;0.80;;;;;;;25.63;31.14;97482.03;5031994;28;20489;-31
2021/11/23 04:03:20;;;;;;;0.70;0.70;;;;;;;25.65;31.21;97479.34;5023270;28;20029;-31
2021/11/23 04:05:46;;;;;;;1.73;0.70;;;;;;;25.65;31.11;97484.59;5029792;28;20032;-31
2021/11/23 04:08:11;;;;;;;1.48;0.80;;;;;;;25.65;30.98;97482.81;5027867;28;20530;-32
2021/11/23 04:10:37;;;;;;;1.10;0.70;;;;;;;25.65;31.06;97487.22;5027575;28;20033;-30
2021/11/23 04:13:03;;;;;;;0.98;0.77;;;;;;;25.65;31.17;97479.34;5027585;28;20035;-30
2021/11/23 04:15:28;;;;;;;1.08;0.60;;;;;;;25.64;31.22;97480.25;5042140;28;20037;-32
2021/11/23 04:17:54;;;;;;;0.80;0.60;;;;;;;25.64;31.02;97480.25;5035057;28;20071;-31
2021/11/23 04:20:19;;;;;;;1.42;0.80;;;;;;;25.63;31.29;97479.41;5030881;28;20033;-31
2021/11/23 04:22:44;;;;;;;1.58;0.82;;;;;;;25.64;31.11;97480.25;5023553;28;20030;-31
2021/11/23 04:25:10;;;;;;;1.17;0.70;;;;;;;25.63;31.01;97474.16;5025347;28;20044;-30
2021/11/23 04:27:36;;;;;;;0.73;0.52;;;;;;;25.64;31.02;97480.25;5028475;28;20082;-32
2021/11/23 04:30:02;;;;;;;2.17;1.00;;;;;;;25.63;31.02;97478.56;5029051;28;20051;-30
2021/11/23 04:32:29;;;;;;;1.05;0.70;;;;;;;25.63;31.00;97478.56;5024684;28;20468;-33
2021/11/23 04:34:54;;;;;;;2.25;0.70;;;;;;;25.62;31.14;97488.19;5028126;28;20024;-33
2021/11/23 04:37:20;;;;;;;4.40;0.88;;;;;;;25.62;31.05;97487.38;5024604;28;20032;-34
2021/11/23 04:39:45;;;;;;;2.33;0.80;;;;;;;25.61;31.06;97486.50;5028681;28;20054;-33
2021/11/23 04:42:10;;;;;;;0.80;0.80;;;;;;;25.61;30.97;97485.63;5025617;28;20037;-30
2021/11/23 04:44:36;;;;;;;0.50;0.50;;;;;;;25.61;30.99;97480.38;5028067;28;20549;-30
2021/11/23 04:47:01;;;;;;;0.80;0.50;;;;;;;25.60;30.93;97494.44;5028509;28;20571;-34
2021/11/23 04:49:27;;;;;;;1.88;0.63;;;;;;;25.60;30.98;97483.94;5030659;28;20031;-30
2021/11/23 04:51:52;;;;;;;1.00;0.47;;;;;;;25.57;31.13;97483.16;5027591;28;20401;-31
2021/11/23 04:54:18;;;;;;;1.13;0.70;;;;;;;25.60;31.17;97476.06;5027976;28;20044;-34
2021/11/23 04:56:43;;;;;;;1.27;0.75;;;;;;;25.61;31.04;97488.25;5028265;28;20037;-35
2021/11/23 04:59:09;;;;;;;1.75;0.63;;;;;;;25.60;31.06;97484.78;5028483;28;20036;-32
2021/11/23 05:01:34;;;;;;;1.73;0.70;;;;;;;25.60;31.12;97483.94;5028704;28;20017;-33
2021/11/23 05:04:00;;;;;;;1.25;0.70;;;;;;;25.59;31.24;97495.34;5025242;28;20029;-32
2021/11/23 05:06:25;;;;;;;1.20;0.68;;;;;;;25.60;31.04;97499.69;5043246;28;20032;-29
2021/11/23 05:08:50;;;;;;;1.02;0.60;;;;;;;25.57;31.21;97496.28;5027612;28;20704;-30
2021/11/23 05:11:17;;;;;;;1.55;0.70;;;;;;;25.59;31.11;97505.84;5026231;28;20773;-34
2021/11/23 05:13:43;;;;;;;0.50;0.47;;;;;;;25.58;31.22;97504.97;5027422;28;20468;-30
2021/11/23 05:16:09;;;;;;;0.80;0.60;;;;;;;25.57;31.26;97504.16;5024339;28;20025;-34
2021/11/23 05:18:34;;;;;;;0.75;0.57;;;;;;;25.57;31.07;97509.41;5020796;28;20086;-32
2021/11/23 05:20:59;;;;;;;0.70;0.57;;;;;;;25.57;31.09;97511.16;5020072;28;20397;-32
2021/11/23 05:23:25;;;;;;;1.60;0.50;;;;;;;25.56;31.20;97505.03;5025390;28;20029;-33
2021/11/23 05:25:50;;;;;;;2.08;0.52;;;;;;;25.57;31.11;97506.78;5041918;28;20394;-35
2021/11/23 05:28:16;;;;;;;0.75;0.57;;;;;;;25.57;31.04;97511.16;5028007;28;20028;-31
2021/11/23 05:30:42;;;;;;;1.88;0.50;;;;;;;25.57;31.26;97503.28;5023187;28;20033;-33
2021/11/23 05:33:07;;;;;;;0.98;0.50;;;;;;;25.57;31.23;97511.16;5026176;28;20029;-32
2021/11/23 05:35:33;;;;;;;1.20;0.52;;;;;;;25.57;31.18;97508.53;5027791;28;20035;-29
2021/11/23 05:37:58;;;;;;;1.08;0.60;;;;;;;25.54;31.17;97509.47;5024504;28;20021;-32
2021/11/23 05:40:23;;;;;;;0.93;0.60;;;;;;;25.56;31.15;97514.69;5045518;28;20092;-31
2021/11/23 05:42:49;;;;;;;1.48;1.02;;;;;;;25.54;30.63;97511.25;5029563;28;20090;-32
2021/11/23 05:45:14;;;;;;;1.35;0.60;;;;;;;25.53;30.69;97514.78;5024855;28;20036;-31
2021/11/23 05:47:41;;;;;;;0.70;0.60;;;;;;;25.53;30.96;97523.53;5023417;28;20032;-31
2021/11/23 05:50:07;;;;;;;1.35;0.70;;;;;;;25.53;30.92;97520.91;5035296;28;20033;-31
2021/11/23 05:52:32;;;;;;;1.33;0.57;;;;;;;25.53;31.13;97523.53;5022839;28;20020;-30
2021/11/23 05:54:58;;;;;;;0.75;0.60;;;;;;;25.53;31.04;97520.91;5024395;28;20032;-32
2021/11/23 05:57:23;;;;;;;0.50;0.40;;;;;;;25.52;31.09;97521.78;5017022;28;20055;-31
2021/11/23 05:59:49;;;;;;;0.85;0.50;;;;;;;25.53;31.20;97515.66;5032255;28;20060;-34
2021/11/23 06:02:14;;;;;;;2.10;0.70;;;;;;;25.52;31.09;97519.16;5020946;28;20029;-35
2021/11/23 06:04:40;;;;;;;2.10;0.80;;;;;;;25.52;31.13;97524.41;5027017;28;20053;-31
2021/11/23 06:07:05;;;;;;;1.38;0.60;;;;;;;25.52;31.31;97519.16;5027514;28;20029;-29
2021/11/23 06:09:30;;;;;;;0.70;0.70;;;;;;;25.53;31.33;97525.28;5028850;28;20051;-32
2021/11/23 06:11:56;;;;;;;1.65;0.40;;;;;;;25.54;31.26;97526.97;5026522;28;20035;-33
2021/11/23 06:14:21;;;;;;;0.93;0.63;;;;;;;25.53;31.16;97525.28;5028480;28;20079;-31
2021/11/23 06:16:47;;;;;;;1.48;0.45;;;;;;;25.53;31.42;97531.41;5046838;28;20508;-32
2021/11/23 06:19:13;;;;;;;1.13;0.50;;;;;;;25.54;31.27;97533.09;5028133;28;20016;-29
2021/11/23 06:21:39;;;;;;;0.88;0.40;;;;;;;25.54;31.24;97526.97;5027520;28;20032;-30
2021/11/23 06:24:05;;;;;;;1.13;0.47;;;;;;;25.53;31.39;97531.41;5027886;28;20033;-31
2021/11/23 06:26:30;;;;;;;0.52;0.52;;;;;;;25.52;31.43;97529.66;5013740;28;21135;-33
2021/11/23 06:28:56;;;;;;;1.33;0.50;;;;;;;25.54;31.30;97530.47;5029606;28;20669;-30
2021/11/23 06:31:21;;;;;;;0.73;0.50;;;;;;;25.53;31.40;97531.41;5027809;28;20032;-34
2021/11/23 06:33:47;;;;;;;0.63;0.50;;;;;;;25.54;31.42;97534.84;5025776;28;20033;-31
2021/11/23 06:36:12;;;;;;;0.40;0.40;;;;;;;25.53;31.44;97536.66;5030779;28;20029;-29
2021/11/23 06:38:37;;;;;;;1.02;0.50;;;;;;;25.54;31.32;97540.09;5024314;28;20036;-34
2021/11/23 06:41:03;;;;;;;0.75;0.70;;;;;;;25.54;31.41;97543.59;5029407;28;20029;-32
2021/11/23 06:43:29;;;;;;;0.38;0.38;;;;;;;25.53;31.42;97557.66;5029049;28;20033;-30
2021/11/23 06:45:55;;;;;;;1.23;0.45;;;;;;;25.54;31.50;97559.34;5027086;28;20919;-33
2021/11/23 06:48:20;;;;;;;0.85;0.40;;;;;;;25.53;31.44;97568.16;5045695;28;20476;-31
2021/11/23 06:50:46;;;;;;;0.82;0.40;;;;;;;25.53;31.46;97568.16;5029730;28;20071;-32
2021/11/23 06:53:11;;;;;;;0.40;0.40;;;;;;;25.54;31.44;97564.59;5029997;28;20025;-34
2021/11/23 06:55:37;;;;;;;0.73;0.30;;;;;;;25.54;31.54;97569.84;5024400;28;20025;-35
2021/11/23 06:58:03;;;;;;;0.40;0.20;;;;;;;25.55;31.66;97576.78;5021862;28;20024;-32
2021/11/23 07:00:29;;;;;;;0.50;0.50;;;;;;;25.55;31.40;97576.78;5027417;28;20034;-31
2021/11/23 07:02:54;;;;;;;0.88;0.60;;;;;;;25.55;31.48;97579.41;5027442;28;20025;-32
2021/11/23 07:05:20;;;;;;;0.65;0.57;;;;;;;25.56;31.60;97583.78;5029690;28;20028;-31
2021/11/23 07:07:46;;;;;;;2.30;0.60;;;;;;;25.56;31.52;97588.19;5027649;28;20037;-35
2021/11/23 07:10:12;;;;;;;0.65;0.40;;;;;;;25.56;31.54;97582.94;5026623;28;20442;-33
2021/11/23 07:12:38;;;;;;;1.30;0.50;;;;;;;25.56;31.67;97589.03;5022913;28;20025;-32
2021/11/23 07:15:04;;;;;;;0.63;0.40;;;;;;;25.57;31.62;97585.50;5019710;28;20509;-31
2021/11/23 07:17:30;;;;;;;0.63;0.50;;;;;;;25.57;31.54;97590.75;5021042;28;20029;-31
2021/11/23 07:19:55;;;;;;;1.33;0.50;;;;;;;25.59;31.67;97592.47;5024511;28;20052;-32
2021/11/23 07:22:21;;;;;;;1.70;0.80;;;;;;;25.59;31.41;97602.97;5016408;28;20034;-31
2021/11/23 07:24:46;;;;;;;1.17;0.68;;;;;;;25.59;31.60;97597.72;5021453;28;20044;-29
2021/11/23 07:27:12;;;;;;;3.00;1.08;;;;;;;25.59;31.42;97595.09;5027575;28;20111;-31
2021/11/23 07:29:37;;;;;;;9.13;2.92;;;;;;;25.58;31.36;97602.09;5023446;28;20314;-31
2021/11/23 07:32:03;;;;;;;11.77;2.60;;;;;;;25.59;31.41;97600.34;5024540;28;20032;-32
2021/11/23 07:34:28;;;;;;;9.27;2.70;;;;;;;25.60;31.56;97604.66;5025592;28;20107;-34
2021/11/23 07:36:54;;;;;;;8.10;2.38;;;;;;;25.59;31.45;97602.97;5025704;28;20033;-33
2021/11/23 07:39:20;;;;;;;5.63;2.22;;;;;;;25.60;31.48;97605.53;5025498;28;20021;-31
2021/11/23 07:41:46;;;;;;;9.55;1.95;;;;;;;25.61;31.51;97604.59;5023315;28;20057;-31
2021/11/23 07:44:12;;;;;;;7.75;2.10;;;;;;;25.61;31.69;97601.97;5024008;28;20098;-31
2021/11/23 07:46:37;;;;;;;6.63;2.58;;;;;;;25.63;31.52;97615.03;5015559;28;20049;-30
2021/11/23 07:49:03;;;;;;;12.05;4.47;;;;;;;25.63;30.70;97610.63;5019963;28;20080;-33
2021/11/23 07:51:29;;;;;;;14.77;4.78;;;;;;;25.61;28.44;97611.63;5024967;28;20033;-30
2021/11/23 07:53:54;;;;;;;28.85;4.88;;;;;;;25.55;27.23;97608.28;5023419;28;20032;-30
2021/11/23 07:56:20;;;;;;;15.48;4.07;;;;;;;25.49;26.63;97605.91;5023499;28;20030;-31
2021/11/23 07:58:46;;;;;;;16.63;4.43;;;;;;;25.44;26.38;97611.31;5024488;28;20035;-32
2021/11/23 08:01:11;;;;;;;25.67;4.30;;;;;;;25.38;25.91;97606.34;5025904;28;20032;-31
2021/11/23 08:03:36;;;;;;;10.68;3.78;;;;;;;25.31;25.82;97605.72;5021653;28;20037;-31
2021/11/23 08:06:02;;;;;;;13.77;3.80;;;;;;;25.27;26.03;97611.13;5025758;28;20032;-29
2021/11/23 08:08:29;;;;;;;10.55;3.80;;;;;;;25.23;25.87;97609.53;5022908;28;20028;-30
2021/11/23 08:10:54;;;;;;;10.25;4.28;;;;;;;25.17;25.85;97613.25;5024650;28;20028;-33
2021/11/23 08:13:19;;;;;;;6.80;3.20;;;;;;;25.11;25.76;97613.47;5037602;28;20025;-29
2021/11/23 08:15:45;;;;;;;12.63;3.42;;;;;;;25.07;25.59;97619.72;5022871;28;20033;-31
2021/11/23 08:18:10;;;;;;;11.98;3.42;;;;;;;25.01;25.74;97616.44;5026449;28;20112;-34
2021/11/23 08:20:36;;;;;;;6.18;3.50;;;;;;;24.98;25.68;97627.03;5023776;28;20039;-31
2021/11/23 08:23:02;;;;;;;5.88;3.05;;;;;;;24.95;25.61;97621.91;5026017;28;20064;-31
2021/11/23 08:25:28;;;;;;;7.00;3.30;;;;;;;24.92;25.84;97624.63;5026734;28;20155;-31
2021/11/23 08:27:54;;;;;;;7.43;3.33;;;;;;;24.88;25.55;97626.53;5027635;28;20044;-34
2021/11/23 08:30:20;;;;;;;7.00;3.30;;;;;;;24.85;25.19;97629.25;5025596;28;20440;-33
2021/11/23 08:32:46;;;;;;;5.60;3.22;;;;;;;24.83;25.20;97635.44;5024004;28;20037;-35
2021/11/23 08:35:11;;;;;;;6.55;3.05;;;;;;;24.79;25.39;97639.94;5023554;28;20028;-34
2021/11/23 08:37:37;;;;;;;6.78;3.00;;;;;;;24.74;25.09;97640.09;5023716;28;20021;-32
2021/11/23 08:40:03;;;;;;;7.80;3.10;;;;;;;24.69;25.34;97641.16;5017979;28;20060;-33
2021/11/23 08:42:29;;;;;;;5.43;3.03;;;;;;;24.68;25.14;97632.44;5024470;28;20026;-33
2021/11/23 08:44:55;;;;;;;5.28;2.28;;;;;;;24.69;26.07;97639.41;5023571;28;20032;-31
2021/11/23 08:47:20;;;;;;;7.25;2.38;;;;;;;24.72;26.84;97636.69;5021782;28;20064;-33
2021/11/23 08:49:46;;;;;;;5.60;1.80;;;;;;;24.78;27.29;97639.06;5023480;28;20185;-35
2021/11/23 08:52:13;;;;;;;8.32;2.33;;;;;;;24.84;27.70;97635.41;5022186;28;20028;-34
2021/11/23 08:54:38;;;;;;;4.53;1.88;;;;;;;24.91;28.15;97643.91;5023080;28;20028;-29
2021/11/23 08:57:05;;;;;;;6.72;2.08;;;;;;;24.98;28.36;97640.13;5018020;28;20441;-32
2021/11/23 08:59:33;;;;;;;5.57;2.03;;;;;;;25.05;28.45;97640.78;5023738;28;20017;-29
2021/11/23 09:02:00;;;;;;;4.93;1.98;;;;;;;25.13;28.81;97637.88;5026418;28;20520;-30
2021/11/23 09:04:25;;;;;;;5.93;1.80;;;;;;;25.19;28.78;97632.41;5021867;28;20163;-30
2021/11/23 09:06:51;;;;;;;3.83;1.98;;;;;;;25.24;28.98;97630.47;5023443;28;20596;-29
2021/11/23 09:09:17;;;;;;;3.53;1.80;;;;;;;25.30;29.09;97643.38;5026259;28;20559;-35
2021/11/23 09:11:42;;;;;;;6.88;2.03;;;;;;;25.36;29.10;97628.28;5027280;28;20075;-31
2021/11/23 09:14:08;;;;;;;3.63;1.58;;;;;;;25.41;29.31;97636.84;5027688;28;20021;-30
2021/11/23 09:16:35;;;;;;;4.97;1.80;;;;;;;25.46;29.41;97637.50;5031018;28;20576;-33
2021/11/23 09:19:00;;;;;;;3.83;1.70;;;;;;;25.49;29.35;97640.03;5028900;28;20421;-30
2021/11/23 09:21:27;;;;;;;3.55;1.67;;;;;;;25.54;29.47;97640.69;5024231;28;20036;-34
2021/11/23 09:23:56;;;;;;;5.63;1.60;;;;;;;25.58;29.47;97641.47;5024212;28;20014;-31
2021/11/23 09:26:22;;;;;;;6.88;1.70;;;;;;;25.62;29.50;97642.22;5022648;28;20545;-33
2021/11/23 09:28:48;;;;;;;13.38;2.50;;;;;;;25.62;29.10;97650.09;5027113;28;20020;-30
2021/11/23 09:31:13;;;;;;;8.82;4.10;;;;;;;25.50;23.65;97648.75;5024054;28;20060;-32
2021/11/23 09:33:38;;;;;;;11.43;4.90;;;;;;;25.23;21.62;97643.63;5021065;28;20029;-36
2021/11/23 09:36:04;;;;;;;15.93;3.97;;;;;;;24.94;21.87;97649.03;5020673;28;20033;-31
2021/11/23 09:38:29;;;;;;;12.13;3.38;;;;;;;24.75;22.92;97644.41;5021118;28;20076;-33
2021/11/23 09:40:55;;;;;;;13.00;2.97;;;;;;;24.64;23.67;97646.56;5022138;28;20064;-33
2021/11/23 09:43:20;;;;;;;7.07;2.35;;;;;;;24.59;24.61;97638.00;5021669;28;20402;-31
2021/11/23 09:45:46;;;;;;;6.78;2.55;;;;;;;24.59;25.12;97645.88;5024537;28;20453;-34
2021/11/23 09:48:11;;;;;;;5.28;2.03;;;;;;;24.62;25.74;97648.38;5033704;28;20029;-29
2021/11/23 09:50:41;;;;;;;7.55;2.22;;;;;;;24.65;25.74;97656.13;5021869;28;20473;-31
2021/11/23 09:53:08;;;;;;;7.65;1.77;;;;;;;24.70;26.27;97656.00;5023975;28;20025;-31
2021/11/23 09:55:34;;;;;;;11.23;2.60;;;;;;;24.74;26.45;97658.44;5017872;28;20037;-33
2021/11/23 09:57:59;;;;;;;8.15;2.85;;;;;;;24.77;26.69;97645.22;5037160;28;20024;-30
2021/11/23 10:00:26;;;;;;;13.07;3.55;;;;;;;24.84;26.89;97645.91;5022952;28;20086;-30
2021/11/23 10:02:52;;;;;;;7.70;2.47;;;;;;;24.88;27.04;97649.25;5024042;28;20079;-29
2021/11/23 10:05:19;;;;;;;9.35;2.42;;;;;;;24.94;27.38;97649.03;5029639;28;20108;-31
2021/11/23 10:07:44;;;;;;;11.25;2.72;;;;;;;25.00;27.32;97647.94;5028188;28;20033;-31
2021/11/23 10:10:10;;;;;;;11.82;2.55;;;;;;;25.06;27.41;97642.50;5043050;28;20029;-32
2021/11/23 10:12:35;;;;;;;8.98;2.58;;;;;;;25.10;27.57;97644.09;5026629;28;20026;-30
2021/11/23 10:15:15;;;;;;;9.60;2.20;;;;;;;25.15;27.99;97642.16;5029367;28;20059;-33
2021/11/23 10:17:42;;;;;;;12.13;2.97;;;;;;;25.20;27.89;97634.09;5022775;28;20128;-31
2021/11/23 10:20:27;;;;;;;54.50;8.32;;;;;;;25.25;27.95;97637.41;5022223;28;20965;-29
2021/11/23 10:22:53;;;;;;;25.45;4.60;;;;;;;25.29;28.31;97638.16;5039601;28;20051;-34
2021/11/23 10:25:18;;;;;;;18.35;4.90;;;;;;;25.33;28.45;97631.88;5027770;28;20100;-33
2021/11/23 10:27:44;;;;;;;24.77;4.82;;;;;;;25.37;28.42;97635.25;5024041;28;20118;-33
2021/11/23 10:30:10;;;;;;;24.80;5.03;;;;;;;25.41;28.44;97631.59;5021869;28;20265;-33
2021/11/23 10:32:49;;;;;;;27.48;4.95;;;;;;;25.43;28.55;97630.63;5020535;28;20047;-31
2021/11/23 10:35:17;;;;;;;23.52;5.25;;;;;;;25.45;28.59;97631.41;5025087;28;20033;-32
2021/11/23 10:37:42;;;;;;;19.45;4.53;;;;;;;25.47;28.58;97615.59;5028713;28;20029;-32
2021/11/23 10:40:16;;;;;;;16.85;4.35;;;;;;;25.49;28.81;97613.78;5024195;28;20030;-29
2021/11/23 10:42:49;;;;;;;22.48;4.72;;;;;;;25.51;28.90;97617.19;5029715;28;20035;-31
2021/11/23 10:45:15;;;;;;;19.30;4.47;;;;;;;25.53;28.78;97620.63;5041547;28;20040;-29
2021/11/23 10:47:42;;;;;;;19.08;4.38;;;;;;;25.55;28.98;97613.53;5027503;28;20021;-33
2021/11/23 10:50:10;;;;;;;22.65;4.95;;;;;;;25.57;28.96;97603.00;5023889;28;20352;-33
2021/11/23 10:52:40;;;;;;;16.00;4.60;;;;;;;25.59;29.03;97610.84;5037278;28;20044;-31
2021/11/23 10:55:24;;;;;;;16.98;4.30;;;;;;;25.60;29.21;97610.78;5026865;28;20575;-30
2021/11/23 10:57:50;;;;;;;14.95;4.20;;;;;;;25.62;29.24;97608.09;5026546;28;20363;-29
2021/11/23 11:00:16;;;;;;;12.10;3.75;;;;;;;25.63;29.14;97605.38;5043469;28;20036;-32
2021/11/23 11:02:41;;;;;;;20.33;4.10;;;;;;;25.64;29.20;97601.88;5030631;28;20386;-30
2021/11/23 11:05:12;;;;;;;14.15;3.92;;;;;;;25.66;29.43;97599.19;5030442;28;20690;-31
2021/11/23 11:07:38;;;;;;;13.00;3.63;;;;;;;25.68;29.44;97600.84;5045871;28;20052;-33
2021/11/23 11:10:05;;;;;;;11.45;4.00;;;;;;;25.70;29.70;97595.50;5045882;28;20120;-31
2021/11/23 11:12:31;;;;;;;11.68;3.45;;;;;;;25.72;29.66;97598.94;5032705;28;20037;-31
2021/11/23 11:14:57;;;;;;;12.45;3.50;;;;;;;25.74;29.87;97593.63;5030740;28;20021;-31
2021/11/23 11:17:23;;;;;;;10.40;3.45;;;;;;;25.75;29.77;97592.69;5028296;28;20025;-31
2021/11/23 11:19:50;;;;;;;12.32;3.50;;;;;;;25.78;29.79;97587.34;5020418;28;20460;-31
2021/11/23 11:22:21;;;;;;;11.75;3.10;;;;;;;25.77;29.83;97581.22;5030770;28;20025;-32
2021/11/23 11:27:37;;;;;;;10.60;3.03;;;;;;;25.82;29.95;97576.63;5042600;28;20174;-30